createdAt,value
2018-05-16T00:00:42.318Z,73.9
2018-05-16T00:01:43.713Z,73.2
2018-05-16T00:02:45.105Z,72.4
2018-05-16T00:03:46.513Z,71.5
2018-05-16T00:04:47.900Z,71.8
2018-05-16T00:05:49.470Z,71.9
2018-05-16T00:06:50.864Z,71.2
2018-05-16T00:07:52.253Z,71.4
2018-05-16T00:08:53.650Z,71.5
2018-05-16T00:09:55.042Z,71.5
2018-05-16T00:10:56.433Z,71.7
2018-05-16T00:11:57.827Z,71.2
2018-05-16T00:12:59.219Z,71.5
2018-05-16T00:14:00.612Z,71.5
2018-05-16T00:15:02.010Z,71.7
2018-05-16T00:16:03.402Z,71.4
2018-05-16T00:17:04.797Z,70.9
2018-05-16T00:18:06.189Z,71.7
2018-05-16T00:19:07.604Z,72.1
2018-05-16T00:20:08.995Z,71.9
2018-05-16T00:21:10.389Z,72.0
2018-05-16T00:22:11.781Z,71.7
2018-05-16T00:23:13.175Z,71.7
2018-05-16T00:24:14.566Z,72.0
2018-05-16T00:25:15.957Z,71.7
2018-05-16T00:26:17.354Z,71.1
2018-05-16T00:27:18.749Z,71.8
2018-05-16T00:28:20.147Z,71.7
2018-05-16T00:29:21.534Z,71.3
2018-05-16T00:30:22.927Z,71.4
2018-05-16T00:31:24.321Z,71.6
2018-05-16T00:32:25.713Z,71.3
2018-05-16T00:33:27.107Z,72.1
2018-05-16T00:34:28.500Z,72.3
2018-05-16T00:35:29.888Z,72.4
2018-05-16T00:36:31.280Z,71.9
2018-05-16T00:37:32.673Z,72.6
2018-05-16T00:38:34.064Z,72.3
2018-05-16T00:39:35.454Z,72.4
2018-05-16T00:40:36.848Z,71.8
2018-05-16T00:41:38.246Z,71.3
2018-05-16T00:42:39.638Z,72.5
2018-05-16T00:43:41.034Z,72.3
2018-05-16T00:44:42.428Z,72.4
2018-05-16T00:45:43.821Z,71.8
2018-05-16T00:46:45.216Z,71.7
2018-05-16T00:47:46.609Z,71.5
2018-05-16T00:48:48.001Z,71.6
2018-05-16T00:49:49.390Z,71.7
2018-05-16T00:50:50.783Z,71.7
2018-05-16T00:51:52.180Z,71.4
2018-05-16T00:52:53.632Z,72.0
2018-05-16T00:53:55.040Z,72.4
2018-05-16T00:54:56.433Z,72.5
2018-05-16T00:55:57.828Z,72.5
2018-05-16T00:56:59.215Z,72.6
2018-05-16T00:58:00.603Z,72.5
2018-05-16T00:59:01.996Z,72.7
2018-05-16T01:00:03.389Z,72.7
2018-05-16T01:01:04.781Z,72.7
2018-05-16T01:02:06.201Z,72.7
2018-05-16T01:03:07.569Z,72.9
2018-05-16T01:04:08.958Z,72.7
2018-05-16T01:05:10.346Z,73.1
2018-05-16T01:06:11.737Z,72.7
2018-05-16T01:07:13.131Z,72.9
2018-05-16T01:08:14.519Z,72.9
2018-05-16T01:09:15.910Z,73.2
2018-05-16T01:10:17.309Z,73.2
2018-05-16T01:11:18.703Z,73.2
2018-05-16T01:12:20.119Z,73.2
2018-05-16T01:13:21.485Z,74.3
2018-05-16T01:14:22.880Z,73.7
2018-05-16T01:15:24.273Z,73.4
2018-05-16T01:16:25.668Z,73.6
2018-05-16T01:17:27.059Z,73.4
2018-05-16T01:18:28.465Z,74.2
2018-05-16T01:19:29.856Z,74.1
2018-05-16T01:20:31.247Z,74.3
2018-05-16T01:21:32.641Z,74.6
2018-05-16T01:22:34.035Z,75.2
2018-05-16T01:23:35.428Z,74.7
2018-05-16T01:24:36.822Z,74.7
2018-05-16T01:25:38.216Z,74.7
2018-05-16T01:26:39.605Z,73.9
2018-05-16T01:27:41.000Z,74.5
2018-05-16T01:28:42.396Z,74.7
2018-05-16T01:29:43.788Z,74.3
2018-05-16T01:30:45.181Z,75.2
2018-05-16T01:31:46.570Z,75.3
2018-05-16T01:32:47.961Z,75.1
2018-05-16T01:33:49.355Z,75.2
2018-05-16T01:34:50.744Z,75.2
2018-05-16T01:35:52.136Z,75.2
2018-05-16T01:36:53.531Z,75.0
2018-05-16T01:37:54.921Z,75.0
2018-05-16T01:38:56.317Z,75.4
2018-05-16T01:39:57.802Z,75.0
2018-05-16T01:40:59.172Z,75.2
2018-05-16T01:42:00.569Z,76.0
2018-05-16T01:43:01.956Z,75.5
2018-05-16T01:44:03.351Z,75.6
2018-05-16T01:45:04.744Z,75.4
2018-05-16T01:46:06.135Z,75.1
2018-05-16T01:47:07.530Z,74.9
2018-05-16T01:48:08.920Z,74.9
2018-05-16T01:49:10.317Z,75.4
2018-05-16T01:50:11.712Z,76.1
2018-05-16T01:51:13.111Z,75.8
2018-05-16T01:52:14.502Z,76.0
2018-05-16T01:53:15.912Z,76.6
2018-05-16T01:54:17.283Z,76.2
2018-05-16T01:55:18.678Z,76.7
2018-05-16T01:56:20.068Z,76.1
2018-05-16T01:57:21.460Z,77.0
2018-05-16T01:58:22.856Z,76.5
2018-05-16T01:59:24.248Z,77.1
2018-05-16T02:00:25.644Z,77.2
2018-05-16T02:01:27.033Z,77.2
2018-05-16T02:02:28.425Z,77.1
2018-05-16T02:03:29.819Z,77.3
2018-05-16T02:04:31.212Z,77.5
2018-05-16T02:05:32.602Z,77.8
2018-05-16T02:06:34.001Z,78.1
2018-05-16T02:07:35.391Z,77.5
2018-05-16T02:08:36.788Z,77.5
2018-05-16T02:09:38.207Z,77.7
2018-05-16T02:10:39.598Z,77.8
2018-05-16T02:11:40.991Z,77.8
2018-05-16T02:12:42.384Z,77.8
2018-05-16T02:13:43.774Z,77.6
2018-05-16T02:14:45.181Z,78.7
2018-05-16T02:15:46.572Z,78.6
2018-05-16T02:16:47.973Z,79.1
2018-05-16T02:17:49.357Z,78.6
2018-05-16T02:18:50.767Z,79.0
2018-05-16T02:19:52.163Z,78.9
2018-05-16T02:20:53.568Z,78.8
2018-05-16T02:21:54.964Z,78.6
2018-05-16T02:22:56.362Z,79.0
2018-05-16T02:23:57.745Z,78.9
2018-05-16T02:24:59.137Z,78.4
2018-05-16T02:26:00.533Z,78.4
2018-05-16T02:27:01.982Z,78.6
2018-05-16T02:28:03.397Z,78.5
2018-05-16T02:29:04.791Z,78.3
2018-05-16T02:30:06.193Z,78.7
2018-05-16T02:31:07.572Z,78.9
2018-05-16T02:32:08.961Z,79.1
2018-05-16T02:33:10.357Z,79.5
2018-05-16T02:34:11.749Z,80.4
2018-05-16T02:35:13.140Z,80.4
2018-05-16T02:36:14.533Z,80.3
2018-05-16T02:37:15.977Z,80.8
2018-05-16T02:38:17.345Z,81.5
2018-05-16T02:39:18.737Z,81.5
2018-05-16T02:40:20.128Z,81.5
2018-05-16T02:41:21.524Z,81.6
2018-05-16T02:42:22.912Z,82.5
2018-05-16T02:43:24.309Z,83.6
2018-05-16T02:44:25.701Z,83.6
2018-05-16T02:45:27.093Z,83.6
2018-05-16T02:46:28.485Z,83.8
2018-05-16T02:47:29.911Z,84.7
2018-05-16T02:48:31.269Z,84.3
2018-05-16T02:49:32.659Z,83.8
2018-05-16T02:50:34.059Z,84.7
2018-05-16T02:51:35.446Z,85.4
2018-05-16T02:52:36.839Z,84.3
2018-05-16T02:53:38.230Z,84.6
2018-05-16T02:54:39.623Z,84.4
2018-05-16T02:55:41.010Z,85.3
2018-05-16T02:56:42.412Z,84.9
2018-05-16T02:57:43.808Z,85.0
2018-05-16T02:58:45.198Z,85.1
2018-05-16T02:59:46.592Z,85.7
2018-05-16T03:00:47.984Z,86.1
2018-05-16T03:01:49.384Z,85.8
2018-05-16T03:02:50.773Z,86.2
2018-05-16T03:03:52.188Z,86.0
2018-05-16T03:04:53.587Z,87.0
2018-05-16T03:05:54.981Z,87.0
2018-05-16T03:06:56.373Z,86.9
2018-05-16T03:07:57.767Z,87.1
2018-05-16T03:08:59.157Z,87.7
2018-05-16T03:10:00.555Z,88.0
2018-05-16T03:11:01.944Z,88.7
2018-05-16T03:12:03.338Z,88.4
2018-05-16T03:13:04.732Z,88.4
2018-05-16T03:14:06.148Z,88.2
2018-05-16T03:15:07.547Z,88.6
2018-05-16T03:16:08.937Z,88.1
2018-05-16T03:17:10.330Z,88.5
2018-05-16T03:18:11.728Z,88.4
2018-05-16T03:19:13.122Z,88.9
2018-05-16T03:20:14.514Z,88.5
2018-05-16T03:21:15.904Z,89.0
2018-05-16T03:22:17.312Z,89.2
2018-05-16T03:23:18.704Z,89.2
2018-05-16T03:24:20.098Z,89.5
2018-05-16T03:25:21.501Z,89.3
2018-05-16T03:26:22.893Z,90.0
2018-05-16T03:27:24.286Z,89.9
2018-05-16T03:28:25.678Z,90.4
2018-05-16T03:29:27.076Z,89.9
2018-05-16T03:30:28.470Z,90.3
2018-05-16T03:31:29.860Z,90.8
2018-05-16T03:32:31.256Z,90.6
2018-05-16T03:33:32.648Z,90.9
2018-05-16T03:34:34.038Z,91.3
2018-05-16T03:35:35.447Z,90.9
2018-05-16T03:36:36.841Z,91.1
2018-05-16T03:37:38.234Z,91.1
2018-05-16T03:38:39.630Z,91.2
2018-05-16T03:39:41.026Z,91.7
2018-05-16T03:40:42.422Z,91.1
2018-05-16T03:41:43.814Z,91.1
2018-05-16T03:42:45.207Z,91.0
2018-05-16T03:43:46.601Z,91.6
2018-05-16T03:44:47.992Z,91.0
2018-05-16T03:45:49.416Z,91.2
2018-05-16T03:46:50.810Z,91.2
2018-05-16T03:47:52.206Z,90.9
2018-05-16T03:48:53.600Z,91.8
2018-05-16T03:49:54.992Z,91.7
2018-05-16T03:50:56.385Z,91.7
2018-05-16T03:51:57.829Z,91.3
2018-05-16T03:52:59.170Z,91.2
2018-05-16T03:54:00.562Z,91.7
2018-05-16T03:55:01.955Z,92.0
2018-05-16T03:56:03.348Z,91.7
2018-05-16T03:57:04.739Z,91.7
2018-05-16T03:58:06.133Z,91.7
2018-05-16T03:59:07.524Z,92.2
2018-05-16T04:00:08.928Z,92.0
2018-05-16T04:01:10.375Z,92.0
2018-05-16T04:02:11.809Z,92.5
2018-05-16T04:03:13.174Z,92.2
2018-05-16T04:04:14.568Z,91.8
2018-05-16T04:05:15.961Z,92.1
2018-05-16T04:06:17.356Z,91.7
2018-05-16T04:07:18.781Z,91.8
2018-05-16T04:08:20.174Z,91.1
2018-05-16T04:09:21.568Z,91.3
2018-05-16T04:10:22.965Z,91.7
2018-05-16T04:11:24.355Z,91.1
2018-05-16T04:12:25.753Z,91.2
2018-05-16T04:13:27.228Z,91.2
2018-05-16T04:14:28.548Z,91.0
2018-05-16T04:15:29.934Z,90.9
2018-05-16T04:16:31.335Z,91.6
2018-05-16T04:17:32.727Z,91.6
2018-05-16T04:18:34.124Z,92.8
2018-05-16T04:19:35.516Z,91.9
2018-05-16T04:20:36.910Z,92.3
2018-05-16T04:21:38.309Z,93.2
2018-05-16T04:22:39.706Z,93.2
2018-05-16T04:23:41.100Z,92.9
2018-05-16T04:24:42.495Z,92.5
2018-05-16T04:25:43.891Z,93.0
2018-05-16T04:26:45.296Z,93.2
2018-05-16T04:27:46.690Z,93.5
2018-05-16T04:28:48.111Z,92.7
2018-05-16T04:29:49.487Z,92.7
2018-05-16T04:30:50.888Z,92.6
2018-05-16T04:31:52.283Z,93.0
2018-05-16T04:32:53.673Z,93.9
2018-05-16T04:33:55.069Z,93.9
2018-05-16T04:34:56.464Z,94.4
2018-05-16T04:35:57.862Z,94.3
2018-05-16T04:36:59.257Z,94.3
2018-05-16T04:38:00.660Z,94.8
2018-05-16T04:39:02.061Z,95.4
2018-05-16T04:40:03.461Z,94.1
2018-05-16T04:41:04.850Z,93.6
2018-05-16T04:42:06.319Z,93.8
2018-05-16T04:43:07.734Z,94.3
2018-05-16T04:44:09.131Z,93.5
2018-05-16T04:45:10.527Z,93.1
2018-05-16T04:46:11.936Z,93.3
2018-05-16T04:47:13.431Z,93.0
2018-05-16T04:48:14.866Z,93.1
2018-05-16T04:49:16.261Z,94.3
2018-05-16T04:50:17.663Z,94.0
2018-05-16T04:51:19.060Z,93.1
2018-05-16T04:52:20.456Z,93.2
2018-05-16T04:53:21.847Z,93.4
2018-05-16T04:54:23.241Z,93.6
2018-05-16T04:55:24.633Z,93.1
2018-05-16T04:56:26.029Z,93.6
2018-05-16T04:57:27.437Z,93.2
2018-05-16T04:58:28.844Z,92.5
2018-05-16T04:59:30.245Z,92.6
2018-05-16T05:00:31.644Z,93.0
2018-05-16T05:01:33.040Z,93.3
2018-05-16T05:02:34.442Z,93.4
2018-05-16T05:03:35.833Z,93.3
2018-05-16T05:04:37.231Z,93.0
2018-05-16T05:05:38.631Z,93.2
2018-05-16T05:06:40.028Z,93.6
2018-05-16T05:07:41.419Z,93.7
2018-05-16T05:08:42.814Z,94.1
2018-05-16T05:09:44.206Z,94.1
2018-05-16T05:10:45.603Z,94.1
2018-05-16T05:11:47.001Z,93.7
2018-05-16T05:12:48.396Z,93.8
2018-05-16T05:13:49.798Z,93.3
2018-05-16T05:14:51.190Z,92.4
2018-05-16T05:15:52.589Z,92.9
2018-05-16T05:16:53.981Z,92.7
2018-05-16T05:17:55.394Z,92.4
2018-05-16T05:18:56.796Z,92.1
2018-05-16T05:19:58.185Z,92.4
2018-05-16T05:20:59.584Z,92.4
2018-05-16T05:22:00.978Z,92.7
2018-05-16T05:23:02.374Z,92.1
2018-05-16T05:24:03.831Z,92.1
2018-05-16T05:25:05.187Z,91.9
2018-05-16T05:26:06.583Z,91.6
2018-05-16T05:27:07.985Z,91.5
2018-05-16T05:28:09.382Z,92.2
2018-05-16T05:29:10.777Z,92.0
2018-05-16T05:30:12.235Z,91.4
2018-05-16T05:31:13.572Z,91.2
2018-05-16T05:32:14.972Z,91.8
2018-05-16T05:33:16.367Z,92.3
2018-05-16T05:34:17.858Z,91.7
2018-05-16T05:35:19.284Z,92.8
2018-05-16T05:36:20.680Z,92.5
2018-05-16T05:37:22.086Z,92.8
2018-05-16T05:38:23.478Z,92.5
2018-05-16T05:39:24.878Z,92.7
2018-05-16T05:40:26.275Z,92.2
2018-05-16T05:41:27.672Z,90.7
2018-05-16T05:42:29.068Z,90.8
2018-05-16T05:43:30.473Z,91.0
2018-05-16T05:44:31.867Z,91.3
2018-05-16T05:45:33.330Z,90.6
2018-05-16T05:46:34.667Z,90.9
2018-05-16T05:47:36.065Z,90.4
2018-05-16T05:48:37.459Z,90.8
2018-05-16T05:49:38.856Z,91.0
2018-05-16T05:50:40.255Z,91.0
2018-05-16T05:51:41.669Z,91.0
2018-05-16T05:52:43.054Z,91.0
2018-05-16T05:53:44.445Z,91.1
2018-05-16T05:54:45.843Z,91.3
2018-05-16T05:55:47.304Z,91.1
2018-05-16T05:56:48.685Z,90.7
2018-05-16T05:57:50.080Z,90.6
2018-05-16T05:58:51.473Z,90.4
2018-05-16T05:59:52.869Z,90.0
2018-05-16T06:00:54.265Z,89.3
2018-05-16T06:01:55.672Z,89.1
2018-05-16T06:02:57.145Z,88.9
2018-05-16T06:03:58.566Z,89.2
2018-05-16T06:04:59.967Z,89.5
2018-05-16T06:06:01.365Z,89.6
2018-05-16T06:07:02.760Z,89.6
2018-05-16T06:08:04.157Z,89.6
2018-05-16T06:09:05.556Z,89.6
2018-05-16T06:10:06.963Z,89.4
2018-05-16T06:11:08.359Z,89.4
2018-05-16T06:12:09.753Z,90.1
2018-05-16T06:13:11.182Z,89.6
2018-05-16T06:14:12.579Z,89.8
2018-05-16T06:15:13.977Z,90.0
2018-05-16T06:16:15.372Z,89.6
2018-05-16T06:17:16.771Z,88.9
2018-05-16T06:18:18.174Z,89.2
2018-05-16T06:19:19.568Z,89.7
2018-05-16T06:20:21.044Z,89.1
2018-05-16T06:21:22.463Z,88.7
2018-05-16T06:22:23.860Z,88.5
2018-05-16T06:23:25.262Z,88.3
2018-05-16T06:24:26.659Z,88.0
2018-05-16T06:25:28.055Z,88.2
2018-05-16T06:26:29.451Z,88.7
2018-05-16T06:27:30.847Z,88.3
2018-05-16T06:28:32.344Z,88.3
2018-05-16T06:29:33.656Z,88.3
2018-05-16T06:30:35.050Z,87.7
2018-05-16T06:31:36.447Z,86.2
2018-05-16T06:32:37.850Z,85.9
2018-05-16T06:33:39.243Z,85.9
2018-05-16T06:34:40.640Z,86.4
2018-05-16T06:35:42.037Z,86.2
2018-05-16T06:36:43.432Z,85.9
2018-05-16T06:37:44.827Z,87.0
2018-05-16T06:38:46.229Z,87.4
2018-05-16T06:39:47.629Z,87.8
2018-05-16T06:40:49.024Z,87.1
2018-05-16T06:41:50.425Z,86.4
2018-05-16T06:42:51.820Z,86.1
2018-05-16T06:43:53.219Z,87.3
2018-05-16T06:44:54.622Z,86.8
2018-05-16T06:45:56.040Z,86.0
2018-05-16T06:46:57.431Z,86.8
2018-05-16T06:47:58.826Z,87.2
2018-05-16T06:49:00.230Z,87.1
2018-05-16T06:50:01.627Z,85.3
2018-05-16T06:51:03.026Z,85.0
2018-05-16T06:52:04.426Z,85.0
2018-05-16T06:53:05.822Z,85.5
2018-05-16T06:54:07.230Z,85.1
2018-05-16T06:55:08.621Z,85.0
2018-05-16T06:56:10.019Z,84.2
2018-05-16T06:57:11.416Z,84.2
2018-05-16T06:58:12.814Z,82.2
2018-05-16T06:59:14.209Z,81.4
2018-05-16T07:00:15.606Z,82.7
2018-05-16T07:01:17.007Z,82.2
2018-05-16T07:02:18.396Z,82.9
2018-05-16T07:03:19.796Z,82.8
2018-05-16T07:04:21.193Z,83.0
2018-05-16T07:05:22.611Z,82.7
2018-05-16T07:06:24.072Z,82.4
2018-05-16T07:07:25.473Z,82.3
2018-05-16T07:08:26.870Z,81.9
2018-05-16T07:09:28.269Z,82.5
2018-05-16T07:10:29.664Z,81.1
2018-05-16T07:11:31.062Z,81.2
2018-05-16T07:12:32.467Z,81.3
2018-05-16T07:13:33.889Z,80.4
2018-05-16T07:14:35.273Z,78.8
2018-05-16T07:15:36.666Z,77.6
2018-05-16T07:16:38.071Z,76.6
2018-05-16T07:17:39.469Z,76.0
2018-05-16T07:18:40.865Z,76.8
2018-05-16T07:19:42.282Z,75.1
2018-05-16T07:20:43.666Z,73.5
2018-05-16T07:21:45.072Z,74.0
2018-05-16T07:22:46.560Z,74.3
2018-05-16T07:23:47.894Z,75.2
2018-05-16T07:24:49.300Z,74.3
2018-05-16T07:25:50.694Z,72.3
2018-05-16T07:26:52.109Z,73.0
2018-05-16T07:27:53.493Z,72.8
2018-05-16T07:28:54.896Z,72.5
2018-05-16T07:29:56.300Z,71.6
2018-05-16T07:30:57.699Z,71.4
2018-05-16T07:31:59.098Z,72.4
2018-05-16T07:33:00.494Z,71.9
2018-05-16T07:34:01.892Z,72.4
2018-05-16T07:35:03.294Z,71.5
2018-05-16T07:36:04.697Z,70.6
2018-05-16T07:37:06.099Z,71.0
2018-05-16T07:38:07.501Z,71.8
2018-05-16T07:39:08.895Z,70.5
2018-05-16T07:40:10.293Z,69.9
2018-05-16T07:41:11.780Z,69.7
2018-05-16T07:42:13.097Z,70.3
2018-05-16T07:43:14.502Z,69.9
2018-05-16T07:44:15.901Z,69.5
2018-05-16T07:45:17.302Z,69.1
2018-05-16T07:46:18.703Z,69.3
2018-05-16T07:47:20.110Z,68.4
2018-05-16T07:48:21.499Z,69.6
2018-05-16T07:49:23.029Z,69.3
2018-05-16T07:50:24.428Z,68.4
2018-05-16T07:51:25.833Z,68.0
2018-05-16T07:52:27.242Z,68.0
2018-05-16T07:53:28.642Z,67.6
2018-05-16T07:54:30.040Z,68.0
2018-05-16T07:55:31.438Z,68.0
2018-05-16T07:56:32.838Z,68.0
2018-05-16T07:57:34.235Z,67.2
2018-05-16T07:58:35.647Z,67.8
2018-05-16T07:59:37.045Z,68.0
2018-05-16T08:00:38.443Z,66.8
2018-05-16T08:01:39.843Z,66.3
2018-05-16T08:02:41.239Z,65.1
2018-05-16T08:03:42.648Z,65.3
2018-05-16T08:04:44.048Z,67.0
2018-05-16T08:05:45.450Z,65.5
2018-05-16T08:06:46.849Z,65.5
2018-05-16T08:07:48.245Z,66.1
2018-05-16T08:08:49.645Z,66.6
2018-05-16T08:09:51.048Z,67.0
2018-05-16T08:10:52.464Z,66.1
2018-05-16T08:11:53.866Z,64.6
2018-05-16T08:12:55.266Z,64.9
2018-05-16T08:13:56.665Z,65.0
2018-05-16T08:14:58.066Z,65.9
2018-05-16T08:15:59.471Z,66.4
2018-05-16T08:17:00.865Z,64.9
2018-05-16T08:18:02.264Z,65.6
2018-05-16T08:19:03.666Z,64.9
2018-05-16T08:20:05.071Z,63.9
2018-05-16T08:21:06.469Z,65.1
2018-05-16T08:22:07.869Z,64.3
2018-05-16T08:23:09.280Z,65.9
2018-05-16T08:24:10.680Z,65.8
2018-05-16T08:25:12.073Z,63.6
2018-05-16T08:26:13.478Z,63.9
2018-05-16T08:27:14.877Z,62.2
2018-05-16T08:28:16.278Z,62.8
2018-05-16T08:29:17.687Z,62.5
2018-05-16T08:30:19.083Z,63.3
2018-05-16T08:31:20.483Z,61.9
2018-05-16T08:32:21.914Z,61.4
2018-05-16T08:33:23.321Z,60.6
2018-05-16T08:34:24.720Z,61.4
2018-05-16T08:35:26.132Z,62.0
2018-05-16T08:36:27.545Z,62.7
2018-05-16T08:37:28.945Z,62.7
2018-05-16T08:38:30.345Z,62.8
2018-05-16T08:39:31.751Z,62.4
2018-05-16T08:40:33.153Z,62.7
2018-05-16T08:41:34.560Z,62.3
2018-05-16T08:42:35.953Z,61.8
2018-05-16T08:43:37.358Z,61.3
2018-05-16T08:44:38.759Z,60.6
2018-05-16T08:45:40.165Z,61.3
2018-05-16T08:46:41.570Z,61.5
2018-05-16T08:47:42.974Z,62.0
2018-05-16T08:48:44.373Z,62.4
2018-05-16T08:49:45.786Z,61.2
2018-05-16T08:50:47.181Z,61.4
2018-05-16T08:51:48.581Z,61.8
2018-05-16T08:52:49.984Z,62.6
2018-05-16T08:53:51.384Z,62.4
2018-05-16T08:54:52.787Z,61.8
2018-05-16T08:55:54.189Z,62.2
2018-05-16T08:56:55.590Z,62.7
2018-05-16T08:57:56.986Z,62.5
2018-05-16T08:58:58.389Z,61.8
2018-05-16T08:59:59.787Z,62.4
2018-05-16T09:01:01.189Z,62.2
2018-05-16T09:02:02.592Z,61.5
2018-05-16T09:03:03.997Z,62.4
2018-05-16T09:04:05.393Z,62.5
2018-05-16T09:05:06.799Z,62.4
2018-05-16T09:06:08.193Z,61.0
2018-05-16T09:07:09.598Z,61.1
2018-05-16T09:08:11.000Z,62.8
2018-05-16T09:09:12.401Z,62.3
2018-05-16T09:10:13.804Z,61.4
2018-05-16T09:11:15.205Z,61.8
2018-05-16T09:12:16.607Z,62.4
2018-05-16T09:13:18.017Z,61.5
2018-05-16T09:14:19.417Z,61.9
2018-05-16T09:15:20.823Z,62.6
2018-05-16T09:16:22.292Z,63.6
2018-05-16T09:17:23.790Z,63.5
2018-05-16T09:18:25.118Z,61.8
2018-05-16T09:19:26.512Z,62.8
2018-05-16T09:20:27.915Z,62.1
2018-05-16T09:21:29.316Z,62.7
2018-05-16T09:22:30.720Z,62.1
2018-05-16T09:23:32.134Z,61.1
2018-05-16T09:24:33.523Z,61.5
2018-05-16T09:25:34.922Z,61.1
2018-05-16T09:26:36.317Z,61.0
2018-05-16T09:27:37.718Z,62.3
2018-05-16T09:28:39.116Z,62.4
2018-05-16T09:29:40.516Z,63.4
2018-05-16T09:30:41.922Z,63.5
2018-05-16T09:31:43.323Z,63.5
2018-05-16T09:32:44.722Z,64.3
2018-05-16T09:33:46.126Z,65.0
2018-05-16T09:34:47.537Z,64.9
2018-05-16T09:35:48.937Z,64.3
2018-05-16T09:36:50.338Z,65.2
2018-05-16T09:37:51.745Z,63.9
2018-05-16T09:38:53.152Z,63.2
2018-05-16T09:39:54.551Z,63.3
2018-05-16T09:40:55.949Z,62.4
2018-05-16T09:41:57.357Z,62.1
2018-05-16T09:42:58.750Z,62.4
2018-05-16T09:44:00.152Z,64.9
2018-05-16T09:45:01.553Z,64.7
2018-05-16T09:46:02.992Z,64.6
2018-05-16T09:47:04.354Z,64.6
2018-05-16T09:48:05.759Z,63.3
2018-05-16T09:49:07.150Z,62.3
2018-05-16T09:50:08.554Z,62.3
2018-05-16T09:51:09.956Z,63.4
2018-05-16T09:52:11.358Z,63.4
2018-05-16T09:53:12.770Z,64.0
2018-05-16T09:54:14.173Z,63.6
2018-05-16T09:55:15.587Z,64.4
2018-05-16T09:56:16.988Z,63.7
2018-05-16T09:57:18.401Z,62.6
2018-05-16T09:58:19.792Z,62.9
2018-05-16T09:59:21.201Z,61.6
2018-05-16T10:00:22.602Z,61.0
2018-05-16T10:01:24.032Z,60.7
2018-05-16T10:02:25.452Z,59.1
2018-05-16T10:03:26.854Z,57.6
2018-05-16T10:04:28.257Z,57.7
2018-05-16T10:05:29.663Z,57.6
2018-05-16T10:06:31.067Z,57.7
2018-05-16T10:07:32.465Z,57.0
2018-05-16T10:08:33.868Z,56.2
2018-05-16T10:09:35.273Z,58.0
2018-05-16T10:10:36.676Z,58.2
2018-05-16T10:11:38.085Z,56.8
2018-05-16T10:12:39.487Z,56.1
2018-05-16T10:13:40.888Z,56.6
2018-05-16T10:14:42.304Z,56.7
2018-05-16T10:15:43.767Z,54.8
2018-05-16T10:16:45.166Z,54.9
2018-05-16T10:17:46.567Z,55.3
2018-05-16T10:18:47.997Z,55.0
2018-05-16T10:19:49.497Z,53.7
2018-05-16T10:20:50.902Z,53.6
2018-05-16T10:21:52.330Z,54.9
2018-05-16T10:22:53.786Z,53.9
2018-05-16T10:23:55.168Z,54.4
2018-05-16T10:24:56.574Z,55.3
2018-05-16T10:25:57.974Z,55.4
2018-05-16T10:26:59.393Z,54.9
2018-05-16T10:28:00.812Z,54.7
2018-05-16T10:29:02.214Z,54.8
2018-05-16T10:30:03.616Z,54.9
2018-05-16T10:31:05.017Z,54.1
2018-05-16T10:32:06.415Z,54.4
2018-05-16T10:33:07.818Z,52.9
2018-05-16T10:34:09.219Z,53.4
2018-05-16T10:35:10.622Z,54.5
2018-05-16T10:36:12.026Z,54.6
2018-05-16T10:37:13.427Z,53.4
2018-05-16T10:38:14.828Z,54.3
2018-05-16T10:39:16.233Z,53.4
2018-05-16T10:40:17.647Z,54.8
2018-05-16T10:41:19.041Z,54.3
2018-05-16T10:42:20.451Z,54.5
2018-05-16T10:43:21.853Z,54.5
2018-05-16T10:44:23.252Z,54.6
2018-05-16T10:45:24.716Z,54.5
2018-05-16T10:46:26.110Z,55.0
2018-05-16T10:47:27.517Z,54.8
2018-05-16T10:48:28.920Z,54.6
2018-05-16T10:49:30.323Z,54.5
2018-05-16T10:50:31.769Z,54.9
2018-05-16T10:51:33.121Z,54.8
2018-05-16T10:52:34.520Z,55.1
2018-05-16T10:53:35.917Z,55.5
2018-05-16T10:54:37.320Z,55.9
2018-05-16T10:55:38.721Z,56.5
2018-05-16T10:56:40.123Z,56.9
2018-05-16T10:57:41.865Z,57.6
2018-05-16T10:58:42.935Z,58.0
2018-05-16T10:59:44.338Z,58.8
2018-05-16T11:00:45.730Z,59.6
2018-05-16T11:01:47.131Z,60.1
2018-05-16T11:02:48.534Z,60.1
2018-05-16T11:03:49.930Z,60.0
2018-05-16T11:04:51.325Z,60.4
2018-05-16T11:05:52.730Z,61.1
2018-05-16T11:06:54.130Z,61.4
2018-05-16T11:07:55.535Z,61.4
2018-05-16T11:08:56.931Z,61.2
2018-05-16T11:09:58.329Z,61.4
2018-05-16T11:10:59.731Z,61.8
2018-05-16T11:12:01.131Z,61.2
2018-05-16T11:13:02.527Z,60.5
2018-05-16T11:14:03.925Z,61.1
2018-05-16T11:15:05.340Z,61.9
2018-05-16T11:16:06.744Z,61.5
2018-05-16T11:17:08.161Z,62.8
2018-05-16T11:18:09.559Z,62.9
2018-05-16T11:19:10.961Z,62.5
2018-05-16T11:20:12.364Z,62.5
2018-05-16T11:21:13.762Z,62.4
2018-05-16T11:22:15.175Z,62.4
2018-05-16T11:23:16.574Z,63.4
2018-05-16T11:24:17.976Z,63.4
2018-05-16T11:25:19.373Z,63.0
2018-05-16T11:26:20.770Z,64.2
2018-05-16T11:27:22.170Z,64.3
2018-05-16T11:28:23.570Z,64.4
2018-05-16T11:29:24.967Z,64.7
2018-05-16T11:30:26.367Z,64.3
2018-05-16T11:31:27.833Z,64.2
2018-05-16T11:32:29.237Z,65.0
2018-05-16T11:33:30.644Z,64.9
2018-05-16T11:34:32.046Z,64.9
2018-05-16T11:35:33.444Z,65.0
2018-05-16T11:36:34.939Z,65.2
2018-05-16T11:37:36.245Z,65.0
2018-05-16T11:38:37.645Z,65.8
2018-05-16T11:39:39.045Z,65.5
2018-05-16T11:40:40.455Z,66.6
2018-05-16T11:41:41.903Z,65.0
2018-05-16T11:42:43.276Z,65.3
2018-05-16T11:43:44.676Z,64.4
2018-05-16T11:44:46.075Z,62.9
2018-05-16T11:45:47.493Z,63.4
2018-05-16T11:46:48.876Z,62.1
2018-05-16T11:47:50.278Z,61.3
2018-05-16T11:48:51.755Z,60.9
2018-05-16T11:49:53.091Z,61.1
2018-05-16T11:50:54.495Z,61.1
2018-05-16T11:51:55.892Z,60.2
2018-05-16T11:52:57.294Z,59.8
2018-05-16T11:53:58.695Z,61.2
2018-05-16T11:55:00.098Z,58.7
2018-05-16T11:56:01.497Z,58.7
2018-05-16T11:57:02.904Z,57.2
2018-05-16T11:58:04.304Z,56.2
2018-05-16T11:59:05.717Z,55.6
2018-05-16T12:00:07.123Z,55.6
2018-05-16T12:01:08.522Z,55.7
2018-05-16T12:02:09.931Z,55.3
2018-05-16T12:03:11.325Z,55.4
2018-05-16T12:04:12.725Z,56.2
2018-05-16T12:05:14.121Z,56.1
2018-05-16T12:06:15.528Z,55.5
2018-05-16T12:07:16.931Z,55.7
2018-05-16T12:08:18.341Z,56.6
2018-05-16T12:09:19.726Z,55.4
2018-05-16T12:10:21.131Z,56.6
2018-05-16T12:11:22.534Z,55.3
2018-05-16T12:12:23.948Z,55.4
2018-05-16T12:13:25.350Z,55.8
2018-05-16T12:14:26.754Z,54.9
2018-05-16T12:15:28.157Z,54.7
2018-05-16T12:16:29.561Z,54.2
2018-05-16T12:17:31.148Z,52.9
2018-05-16T12:18:32.574Z,52.9
2018-05-16T12:19:33.977Z,52.6
2018-05-16T12:20:35.380Z,52.4
2018-05-16T12:21:36.815Z,53.7
2018-05-16T12:22:38.183Z,54.0
2018-05-16T12:23:39.592Z,53.5
2018-05-16T12:24:40.994Z,53.3
2018-05-16T12:25:42.397Z,54.1
2018-05-16T12:26:43.800Z,52.9
2018-05-16T12:27:45.201Z,53.2
2018-05-16T12:28:46.605Z,54.8
2018-05-16T12:29:48.009Z,54.3
2018-05-16T12:30:49.417Z,52.5
2018-05-16T12:31:50.818Z,52.7
2018-05-16T12:32:52.217Z,53.5
2018-05-16T12:33:53.622Z,52.9
2018-05-16T12:34:55.024Z,53.5
2018-05-16T12:35:56.427Z,54.2
2018-05-16T12:36:57.840Z,53.3
2018-05-16T12:37:59.269Z,53.0
2018-05-16T12:39:00.649Z,54.3
2018-05-16T12:40:02.049Z,54.7
2018-05-16T12:41:03.451Z,54.2
2018-05-16T12:42:04.850Z,54.7
2018-05-16T12:43:06.256Z,54.6
2018-05-16T12:44:07.661Z,54.6
2018-05-16T12:45:09.064Z,53.9
2018-05-16T12:46:10.463Z,52.3
2018-05-16T12:47:11.859Z,52.9
2018-05-16T12:48:13.265Z,52.6
2018-05-16T12:49:14.666Z,52.9
2018-05-16T12:50:16.069Z,53.7
2018-05-16T12:51:17.473Z,51.4
2018-05-16T12:52:18.886Z,51.4
2018-05-16T12:53:20.272Z,50.4
2018-05-16T12:54:21.677Z,50.5
2018-05-16T12:55:23.077Z,49.8
2018-05-16T12:56:24.479Z,50.0
2018-05-16T12:57:25.893Z,51.0
2018-05-16T12:58:27.296Z,50.9
2018-05-16T12:59:28.700Z,51.0
2018-05-16T13:00:30.107Z,52.6
2018-05-16T13:01:31.563Z,52.3
2018-05-16T13:02:32.961Z,51.6
2018-05-16T13:03:34.388Z,52.5
2018-05-16T13:04:35.792Z,52.8
2018-05-16T13:05:37.197Z,52.9
2018-05-16T13:06:38.601Z,54.4
2018-05-16T13:07:39.997Z,54.2
2018-05-16T13:08:41.397Z,54.0
2018-05-16T13:09:42.800Z,54.5
2018-05-16T13:10:44.195Z,54.5
2018-05-16T13:11:45.597Z,56.3
2018-05-16T13:12:46.996Z,56.1
2018-05-16T13:13:48.400Z,56.2
2018-05-16T13:14:49.796Z,56.5
2018-05-16T13:15:51.199Z,56.0
2018-05-16T13:16:52.608Z,56.2
2018-05-16T13:17:54.079Z,57.0
2018-05-16T13:18:55.400Z,56.9
2018-05-16T13:19:56.802Z,56.9
2018-05-16T13:20:58.205Z,56.3
2018-05-16T13:21:59.602Z,57.3
2018-05-16T13:23:01.006Z,58.6
2018-05-16T13:24:02.403Z,57.5
2018-05-16T13:25:03.830Z,58.0
2018-05-16T13:26:05.205Z,59.1
2018-05-16T13:27:06.613Z,59.0
2018-05-16T13:28:08.009Z,60.3
2018-05-16T13:29:09.412Z,58.8
2018-05-16T13:30:10.812Z,59.4
2018-05-16T13:31:12.218Z,60.1
2018-05-16T13:32:13.614Z,60.2
2018-05-16T13:33:15.016Z,61.5
2018-05-16T13:34:16.411Z,61.1
2018-05-16T13:35:17.824Z,60.4
2018-05-16T13:36:19.319Z,60.1
2018-05-16T13:37:20.621Z,60.5